Time;durP1;ratioP1;P1;durP2;ratioP2;P2;SDS_P1;SDS_P2;PMS_P1;PMS_P2;Temp;Humidity;BMP_temperature;BMP_pressure;BME280_temperature;BME280_humidity;BME280_pressure;Samples;Min_cycle;Max_cycle;Signal;HPM_P1;HPM_P2
2023/02/16 00:01:16;;;;;;;60.25;10.70;;;;;;;4.76;100.00;97409.63;5091128;28;20083;-51
2023/02/16 00:03:45;;;;;;;52.47;10.35;;;;;;;5.15;100.00;97414.34;5106180;28;21676;-45
2023/02/16 00:06:15;;;;;;;82.07;11.05;;;;;;;5.22;100.00;97413.06;5095747;28;20063;-46
2023/02/16 00:08:45;;;;;;;83.15;11.85;;;;;;;4.73;100.00;97415.00;5109088;28;20078;-46
2023/02/16 00:14:03;;;;;;;54.00;9.95;;;;;;;4.92;100.00;97406.97;5096676;28;20084;-46
2023/02/16 00:16:32;;;;;;;76.57;11.18;;;;;;;4.84;100.00;97407.41;5100961;28;20090;-52
2023/02/16 00:19:01;;;;;;;67.35;9.93;;;;;;;4.93;100.00;97404.28;5098860;28;20082;-46
2023/02/16 00:21:31;;;;;;;54.55;10.32;;;;;;;5.40;100.00;97405.09;5096701;28;20075;-51
2023/02/16 00:23:59;;;;;;;40.37;9.90;;;;;;;5.53;100.00;97407.84;5092322;28;20082;-44
2023/02/16 00:26:29;;;;;;;44.35;9.73;;;;;;;4.94;100.00;97405.97;5097305;28;20063;-48
2023/02/16 00:28:58;;;;;;;81.18;11.65;;;;;;;4.83;100.00;97399.66;5105652;27;20066;-48
2023/02/16 00:31:31;;;;;;;68.78;9.63;;;;;;;5.06;100.00;97404.44;5098219;28;20491;-49
2023/02/16 00:34:00;;;;;;;58.72;9.18;;;;;;;5.31;100.00;97393.41;5101240;27;20453;-48
2023/02/16 00:36:28;;;;;;;51.83;9.52;;;;;;;5.02;100.00;97397.69;5101616;27;20077;-48
2023/02/16 00:38:58;;;;;;;52.65;8.98;;;;;;;5.12;100.00;97398.84;5105308;28;20067;-50
2023/02/16 00:44:15;;;;;;;47.05;8.98;;;;;;;4.52;100.00;97398.75;5094108;28;20070;-45
2023/02/16 00:46:44;;;;;;;41.33;9.18;;;;;;;4.85;100.00;97393.44;5099988;27;20428;-44
2023/02/16 00:49:14;;;;;;;34.08;9.60;;;;;;;5.14;100.00;97389.16;5098960;27;20063;-50
2023/02/16 00:51:42;;;;;;;80.22;11.90;;;;;;;4.38;100.00;97390.84;5106891;27;20443;-44
2023/02/16 00:54:12;;;;;;;49.60;9.48;;;;;;;3.80;100.00;97387.78;5105952;27;20079;-47
2023/02/16 00:56:41;;;;;;;57.90;9.80;;;;;;;3.67;100.00;97388.50;5099915;27;20183;-49
2023/02/16 00:59:17;;;;;;;42.90;9.07;;;;;;;4.37;100.00;97376.06;5112974;27;20064;-46
2023/02/16 01:01:45;;;;;;;68.65;10.98;;;;;;;4.22;100.00;97375.97;5101375;27;20070;-47
2023/02/16 01:04:20;;;;;;;45.40;9.82;;;;;;;4.69;100.00;97377.75;5100953;27;20079;-50
2023/02/16 01:12:22;;;;;;;39.40;8.63;;;;;;;4.43;100.00;97378.34;5102026;27;20082;-47
2023/02/16 01:14:52;;;;;;;46.78;8.77;;;;;;;3.85;100.00;97382.31;5100841;27;20067;-51
2023/02/16 01:17:20;;;;;;;29.10;8.60;;;;;;;4.16;100.00;97388.50;5105545;27;20085;-47
2023/02/16 01:19:49;;;;;;;42.40;9.50;;;;;;;4.25;100.00;97395.88;5106486;27;20503;-46
2023/02/16 01:22:17;;;;;;;39.53;7.97;;;;;;;4.63;100.00;97395.53;5104122;27;20074;-43
2023/02/16 01:24:47;;;;;;;21.92;8.70;;;;;;;4.37;100.00;97384.78;5104420;27;20074;-47
2023/02/16 01:27:15;;;;;;;49.00;8.88;;;;;;;4.65;100.00;97385.88;5096631;27;20516;-45
2023/02/16 01:29:43;;;;;;;31.27;8.43;;;;;;;4.80;100.00;97385.00;5111604;27;20487;-45
2023/02/16 01:32:12;;;;;;;37.05;8.95;;;;;;;5.18;100.00;97376.75;5105820;27;20082;-44
2023/02/16 01:34:41;;;;;;;52.50;8.90;;;;;;;5.06;100.00;97380.91;5095745;28;20067;-46
2023/02/16 01:37:14;;;;;;;27.80;8.00;;;;;;;5.09;100.00;97387.72;5096623;27;20075;-47
2023/02/16 01:39:43;;;;;;;76.88;9.88;;;;;;;4.75;100.00;97374.81;5095254;28;20070;-46
2023/02/16 01:42:19;;;;;;;29.85;8.00;;;;;;;5.04;100.00;97381.94;5094879;27;20455;-49
2023/02/16 01:44:50;;;;;;;31.52;8.40;;;;;;;5.20;100.00;97377.50;5097969;27;20052;-47
2023/02/16 01:47:40;;;;;;;36.58;8.73;;;;;;;4.90;100.00;97367.88;5097786;28;20068;-46
2023/02/16 01:50:17;;;;;;;31.17;7.63;;;;;;;4.70;100.00;97376.81;5102678;27;20059;-46
2023/02/16 01:52:49;;;;;;;36.72;7.75;;;;;;;4.29;100.00;97376.50;5100129;27;20070;-48
2023/02/16 01:55:23;;;;;;;33.53;7.78;;;;;;;4.37;100.00;97361.25;5099315;27;20063;-48
2023/02/16 01:57:57;;;;;;;23.88;7.55;;;;;;;4.31;100.00;97363.38;5102018;27;20096;-44
2023/02/16 02:00:28;;;;;;;33.42;7.55;;;;;;;4.55;100.00;97356.78;5106407;27;20091;-45
2023/02/16 02:05:33;;;;;;;27.55;7.90;;;;;;;4.83;100.00;97357.84;5104384;27;20087;-50
2023/02/16 02:05:48;;;;;;;25.30;8.20;;;;;;;4.89;100.00;97367.97;5104921;27;20075;-49
2023/02/16 02:08:23;;;;;;;34.60;8.50;;;;;;;4.72;100.00;97376.75;5098367;27;20137;-43
2023/02/16 02:11:03;;;;;;;45.47;8.15;;;;;;;4.60;100.00;97366.97;5101174;27;20079;-46
2023/02/16 02:13:39;;;;;;;35.20;7.97;;;;;;;4.86;100.00;97374.19;5106026;27;20075;-49
2023/02/16 02:16:08;;;;;;;29.23;7.07;;;;;;;4.90;100.00;97360.03;5092127;27;20079;-43
2023/02/16 02:18:37;;;;;;;47.80;8.27;;;;;;;4.78;100.00;97358.09;5094157;28;20609;-44
2023/02/16 02:24:40;;;;;;;72.22;8.85;;;;;;;4.13;100.00;97358.22;5106051;27;20098;-48
2023/02/16 02:27:17;;;;;;;31.77;7.63;;;;;;;4.13;100.00;97352.13;5065318;27;20075;-47
2023/02/16 02:30:01;;;;;;;56.35;8.43;;;;;;;3.91;100.00;97349.84;5102395;27;20165;-49
2023/02/16 02:32:35;;;;;;;51.53;8.43;;;;;;;3.93;100.00;97348.00;5100415;27;20068;-45
2023/02/16 02:35:13;;;;;;;49.92;7.97;;;;;;;4.14;100.00;97349.44;5098461;27;20075;-47
2023/02/16 02:37:48;;;;;;;46.67;7.95;;;;;;;4.14;100.00;97348.63;5095037;27;20632;-50
2023/02/16 02:40:22;;;;;;;44.28;7.75;;;;;;;4.15;100.00;97350.28;5099276;27;20070;-50
2023/02/16 02:42:57;;;;;;;29.20;7.40;;;;;;;4.98;100.00;97344.72;5103966;27;20086;-47
2023/02/16 02:45:29;;;;;;;37.58;9.07;;;;;;;5.20;100.00;97346.97;5097032;27;20172;-47
2023/02/16 02:47:57;;;;;;;43.53;8.40;;;;;;;4.41;100.00;97348.88;5100199;28;20074;-45
2023/02/16 02:50:38;;;;;;;81.45;9.80;;;;;;;3.61;100.00;97349.69;5102881;27;20067;-53
2023/02/16 02:53:12;;;;;;;98.22;10.02;;;;;;;3.21;100.00;97356.94;5096692;27;20068;-49
2023/02/16 03:01:20;;;;;;;45.65;7.55;;;;;;;4.97;100.00;97357.91;5108159;27;20416;-47
2023/02/16 03:03:52;;;;;;;61.78;8.88;;;;;;;4.60;100.00;97346.91;5105206;28;20063;-49
2023/02/16 03:06:24;;;;;;;45.90;7.85;;;;;;;4.40;100.00;97341.94;5106671;27;20522;-49
2023/02/16 03:08:55;;;;;;;40.33;7.95;;;;;;;3.99;100.00;97343.31;5101171;27;20067;-47
2023/02/16 03:14:18;;;;;;;42.53;8.57;;;;;;;3.74;100.00;97345.50;5100986;28;20063;-48
2023/02/16 03:16:49;;;;;;;33.50;8.10;;;;;;;3.58;100.00;97353.31;5091680;28;20071;-46
2023/02/16 03:30:28;;;;;;;39.25;8.73;;;;;;;4.26;100.00;97351.38;5102799;28;20070;-48
2023/02/16 03:32:56;;;;;;;26.25;7.55;;;;;;;3.89;100.00;97347.31;5103572;28;20087;-46
2023/02/16 03:35:25;;;;;;;50.22;8.40;;;;;;;3.41;100.00;97355.94;5100534;28;20078;-47
2023/02/16 03:37:54;;;;;;;53.15;9.25;;;;;;;3.83;100.00;97347.66;5105039;28;20095;-45
2023/02/16 03:40:28;;;;;;;21.30;6.93;;;;;;;3.95;100.00;97344.38;5093257;28;20462;-46
2023/02/16 03:42:58;;;;;;;65.82;9.00;;;;;;;3.75;100.00;97350.66;5104840;27;20075;-46
2023/02/16 03:45:28;;;;;;;47.00;8.55;;;;;;;3.76;100.00;97356.72;5101673;27;20055;-53
2023/02/16 03:47:57;;;;;;;26.52;7.43;;;;;;;3.91;100.00;97358.50;5098477;28;20488;-47
2023/02/16 03:50:26;;;;;;;28.55;8.02;;;;;;;4.62;100.00;97363.34;5102486;28;20066;-50
2023/02/16 03:53:05;;;;;;;37.63;8.65;;;;;;;4.63;100.00;97374.66;5101713;28;20473;-48
2023/02/16 03:55:34;;;;;;;22.70;7.78;;;;;;;4.90;100.00;97372.25;5098837;28;20499;-48
2023/02/16 03:58:03;;;;;;;20.52;8.73;;;;;;;4.71;100.00;97368.06;5098423;28;20079;-50
2023/02/16 04:00:33;;;;;;;30.00;9.25;;;;;;;5.10;100.00;97374.56;5100529;27;20860;-49
2023/02/16 04:03:02;;;;;;;25.85;8.05;;;;;;;4.91;100.00;97380.00;5104838;28;20075;-48
2023/02/16 04:05:31;;;;;;;49.92;9.05;;;;;;;4.97;100.00;97379.66;5099791;27;20465;-48
2023/02/16 04:07:59;;;;;;;55.80;9.80;;;;;;;4.80;100.00;97379.75;5105589;27;20078;-44
2023/02/16 04:10:28;;;;;;;42.40;9.02;;;;;;;4.75;100.00;97379.19;5105260;27;20079;-49
2023/02/16 04:12:55;;;;;;;38.35;9.52;;;;;;;4.77;100.00;97372.09;5100792;27;20083;-45
2023/02/16 04:15:25;;;;;;;26.17;8.38;;;;;;;3.62;100.00;97374.88;5102381;27;20498;-47
2023/02/16 04:17:55;;;;;;;40.65;9.38;;;;;;;4.34;100.00;97378.88;5098136;27;20097;-45
2023/02/16 04:20:25;;;;;;;45.45;9.40;;;;;;;4.42;100.00;97363.63;5099703;27;20059;-49
2023/02/16 04:22:53;;;;;;;45.92;9.52;;;;;;;3.80;100.00;97374.72;5109552;27;20083;-45
2023/02/16 04:25:22;;;;;;;66.82;9.75;;;;;;;4.35;100.00;97367.50;5107847;27;20534;-49
2023/02/16 04:27:51;;;;;;;36.90;8.82;;;;;;;4.36;100.00;97371.78;5106978;27;20076;-47
2023/02/16 04:30:20;;;;;;;34.03;8.50;;;;;;;4.58;100.00;97381.91;5097232;27;20068;-50
2023/02/16 04:32:49;;;;;;;34.15;8.40;;;;;;;4.33;100.00;97378.00;5100337;28;20087;-49
2023/02/16 04:35:19;;;;;;;39.72;8.52;;;;;;;3.99;100.00;97374.63;5095897;28;20075;-49
2023/02/16 04:37:47;;;;;;;59.25;9.35;;;;;;;3.76;100.00;97378.44;5097527;27;20094;-51
2023/02/16 04:40:18;;;;;;;58.38;8.90;;;;;;;3.80;100.00;97376.50;5105113;27;20082;-48
2023/02/16 04:42:47;;;;;;;35.17;8.77;;;;;;;4.37;100.00;97373.44;5102324;27;20102;-47
2023/02/16 04:45:15;;;;;;;66.65;10.15;;;;;;;3.23;100.00;97370.72;5111208;27;20557;-41
2023/02/16 04:47:43;;;;;;;29.20;8.18;;;;;;;2.91;100.00;97367.97;5112225;27;20087;-46
2023/02/16 04:50:12;;;;;;;51.00;10.23;;;;;;;2.95;100.00;97364.28;5105395;27;20093;-44
2023/02/16 04:52:41;;;;;;;39.70;9.40;;;;;;;2.78;100.00;97370.31;5103173;27;20087;-47
2023/02/16 04:55:10;;;;;;;58.97;11.27;;;;;;;2.97;100.00;97366.84;5104252;27;20098;-48
2023/02/16 04:57:39;;;;;;;69.25;10.77;;;;;;;2.60;100.00;97368.59;5105750;27;20080;-45
2023/02/16 05:00:10;;;;;;;61.75;10.88;;;;;;;2.94;100.00;97362.59;5099012;27;20087;-43
2023/02/16 05:02:39;;;;;;;47.60;8.63;;;;;;;2.44;100.00;97359.81;5109435;27;20087;-50
2023/02/16 05:05:08;;;;;;;58.22;9.40;;;;;;;2.84;100.00;97364.81;5115228;27;20079;-46
2023/02/16 05:07:36;;;;;;;30.20;7.63;;;;;;;3.61;100.00;97365.31;5108930;27;20087;-46
2023/02/16 05:10:06;;;;;;;66.60;11.73;;;;;;;2.66;100.00;97365.72;5110922;27;20086;-44
2023/02/16 05:15:21;;;;;;;41.30;7.95;;;;;;;3.95;100.00;97367.00;5101512;28;20578;-48
2023/02/16 05:17:49;;;;;;;61.45;8.70;;;;;;;3.04;100.00;97368.22;5102124;27;20062;-46
2023/02/16 05:20:17;;;;;;;39.25;8.48;;;;;;;3.52;100.00;97374.50;5103276;28;20101;-47
2023/02/16 05:22:46;;;;;;;32.17;8.38;;;;;;;3.12;100.00;97373.03;5111752;27;20084;-50
2023/02/16 05:25:15;;;;;;;35.70;8.10;;;;;;;3.74;100.00;97374.22;5098233;27;20087;-54
2023/02/16 05:27:43;;;;;;;46.47;8.73;;;;;;;3.02;100.00;97376.09;5090996;27;20071;-44
2023/02/16 05:30:13;;;;;;;44.45;18.17;;;;;;;3.66;100.00;97376.38;5106833;27;20079;-52
2023/02/16 05:32:42;;;;;;;35.53;8.27;;;;;;;3.33;100.00;97383.22;5115443;27;20076;-47
2023/02/16 05:35:10;;;;;;;46.63;7.72;;;;;;;3.21;100.00;97383.84;5110812;27;20079;-46
2023/02/16 05:37:38;;;;;;;26.77;7.05;;;;;;;4.04;100.00;97380.41;5113306;27;20090;-49
2023/02/16 05:40:10;;;;;;;35.17;7.55;;;;;;;3.54;100.00;97389.13;5111484;27;20082;-47
2023/02/16 05:42:40;;;;;;;21.38;7.75;;;;;;;3.61;100.00;97386.19;5110795;27;20079;-47
2023/02/16 05:45:09;;;;;;;30.77;8.10;;;;;;;3.19;100.00;97388.28;5106032;28;20079;-44
2023/02/16 05:47:38;;;;;;;25.75;7.00;;;;;;;3.36;100.00;97386.59;5108458;27;20555;-47
2023/02/16 05:50:07;;;;;;;32.72;8.00;;;;;;;2.97;100.00;97383.31;5112114;27;20079;-49
2023/02/16 05:52:35;;;;;;;33.42;7.30;;;;;;;3.27;100.00;97393.97;5111373;27;20083;-47
2023/02/16 05:55:04;;;;;;;27.75;7.20;;;;;;;3.39;100.00;97399.50;5115497;27;20471;-43
2023/02/16 05:57:33;;;;;;;44.55;7.95;;;;;;;3.03;100.00;97401.25;5103494;27;20079;-43
2023/02/16 06:00:04;;;;;;;25.35;7.38;;;;;;;3.35;100.00;97404.03;5108492;27;20087;-49
2023/02/16 06:02:32;;;;;;;;;;;;;;;3.37;100.00;97394.34;5110865;27;20074;-51
2023/02/16 06:05:00;;;;;;;24.20;7.82;;;;;;;3.17;100.00;97395.34;5106289;27;20411;-52
2023/02/16 06:07:28;;;;;;;27.77;7.78;;;;;;;3.06;100.00;97397.63;5113326;27;20094;-49
2023/02/16 06:09:57;;;;;;;17.95;7.00;;;;;;;3.30;100.00;97406.00;5106595;27;20076;-46
2023/02/16 06:12:25;;;;;;;14.13;6.82;;;;;;;2.88;100.00;97395.94;5122668;27;20093;-48
2023/02/16 06:14:54;;;;;;;16.90;6.55;;;;;;;3.38;100.00;97390.84;5110682;27;20709;-45
2023/02/16 06:17:24;;;;;;;21.58;6.10;;;;;;;3.11;100.00;97402.63;5111073;27;20094;-45
2023/02/16 06:19:52;;;;;;;16.10;6.63;;;;;;;3.25;100.00;97400.19;5106737;27;20083;-45
2023/02/16 06:22:20;;;;;;;19.52;5.90;;;;;;;2.74;100.00;97413.06;5113851;27;20086;-46
2023/02/16 06:24:49;;;;;;;30.05;6.57;;;;;;;2.64;100.00;97409.19;5108237;27;20090;-44
2023/02/16 06:27:17;;;;;;;15.50;5.70;;;;;;;2.83;100.00;97419.59;5124117;27;20587;-44
2023/02/16 06:29:45;;;;;;;16.60;5.90;;;;;;;3.30;100.00;97416.41;5108747;27;20083;-47
2023/02/16 06:32:13;;;;;;;19.05;6.15;;;;;;;3.10;100.00;97420.03;5110859;27;20079;-45
2023/02/16 06:34:43;;;;;;;32.30;6.45;;;;;;;2.96;100.00;97433.72;5107489;27;20083;-44
2023/02/16 06:37:12;;;;;;;27.73;6.67;;;;;;;3.07;100.00;97434.03;5119433;27;20090;-45
2023/02/16 06:39:40;;;;;;;34.15;6.57;;;;;;;3.16;100.00;97431.91;5111799;27;21070;-49
2023/02/16 06:42:08;;;;;;;33.10;6.88;;;;;;;3.49;100.00;97432.84;5106362;27;20547;-44
2023/02/16 06:44:38;;;;;;;20.25;6.20;;;;;;;3.34;100.00;97441.44;5114164;27;20092;-46
2023/02/16 06:47:06;;;;;;;22.10;6.70;;;;;;;3.37;100.00;97445.63;5110911;27;20079;-51
2023/02/16 06:49:34;;;;;;;34.00;7.15;;;;;;;3.71;100.00;97444.78;5106565;27;20068;-43
2023/02/16 06:52:04;;;;;;;40.97;7.97;;;;;;;3.84;100.00;97440.63;5102942;27;20079;-47
2023/02/16 06:54:32;;;;;;;42.92;8.45;;;;;;;3.98;100.00;97439.94;5120611;27;20079;-46
2023/02/16 06:57:01;;;;;;;52.92;8.02;;;;;;;3.63;100.00;97433.91;5106528;27;20464;-46
2023/02/16 06:59:29;;;;;;;81.43;11.10;;;;;;;3.20;100.00;97444.72;5122507;27;20086;-44
2023/02/16 07:01:57;;;;;;;96.38;21.45;;;;;;;3.74;100.00;97436.81;5099647;28;20072;-45
2023/02/16 07:04:26;;;;;;;73.90;19.60;;;;;;;3.77;100.00;97429.69;5102514;27;20297;-47
2023/02/16 07:06:54;;;;;;;47.97;8.93;;;;;;;3.56;100.00;97443.81;5110154;27;20609;-44
2023/02/16 07:09:24;;;;;;;21.30;7.80;;;;;;;3.60;100.00;97440.13;5106795;27;20091;-46
2023/02/16 07:11:52;;;;;;;17.90;7.40;;;;;;;4.22;100.00;97430.81;5113684;27;20070;-45
2023/02/16 07:14:21;;;;;;;13.32;7.07;;;;;;;4.77;100.00;97429.59;5106128;27;20569;-46
2023/02/16 07:16:49;;;;;;;25.10;8.02;;;;;;;3.25;100.00;97450.53;5104379;28;20078;-49
2023/02/16 07:19:17;;;;;;;19.48;7.55;;;;;;;3.89;100.00;97446.47;5099229;28;20098;-45
2023/02/16 07:21:46;;;;;;;19.95;7.88;;;;;;;4.02;100.00;97460.56;5119758;28;20082;-50
2023/02/16 07:24:14;;;;;;;13.70;7.35;;;;;;;3.80;100.00;97457.38;5105693;28;20086;-43
2023/02/16 07:26:44;;;;;;;9.63;6.88;;;;;;;3.96;100.00;97455.69;5111036;28;20079;-45
2023/02/16 07:29:12;;;;;;;10.30;7.37;;;;;;;4.21;100.00;97447.41;5104489;28;20087;-49
2023/02/16 07:31:40;;;;;;;10.02;6.47;;;;;;;4.41;100.00;97448.97;5107144;28;20087;-50
2023/02/16 07:34:09;;;;;;;14.30;7.10;;;;;;;4.80;100.00;97439.88;5113457;28;20098;-45
2023/02/16 07:36:37;;;;;;;19.75;7.07;;;;;;;4.59;100.00;97436.66;5117408;27;20085;-50
2023/02/16 07:39:05;;;;;;;14.60;7.13;;;;;;;4.94;100.00;97432.09;5112288;27;20078;-51
2023/02/16 07:41:34;;;;;;;12.23;7.15;;;;;;;5.18;100.00;97429.88;5112640;27;20086;-49
2023/02/16 07:44:03;;;;;;;9.90;7.93;;;;;;;5.14;100.00;97427.53;5120469;27;20078;-46
2023/02/16 07:46:32;;;;;;;8.63;7.25;;;;;;;4.70;100.00;97436.06;5110149;27;20451;-50
2023/02/16 07:49:00;;;;;;;10.75;6.80;;;;;;;4.83;100.00;97444.09;5114947;27;20091;-51
2023/02/16 07:51:30;;;;;;;8.88;6.57;;;;;;;4.63;100.00;97447.78;5106101;27;20467;-46
2023/02/16 07:54:00;;;;;;;7.88;5.70;;;;;;;5.18;100.00;97445.56;5118326;27;20087;-45
2023/02/16 07:56:30;;;;;;;7.85;6.63;;;;;;;4.71;100.00;97459.53;5107048;27;20082;-50
2023/02/16 07:59:00;;;;;;;7.10;6.28;;;;;;;5.47;100.00;97461.34;5119303;27;20574;-45
2023/02/16 08:01:30;;;;;;;7.88;6.05;;;;;;;4.82;100.00;97458.06;5113940;27;20083;-48
2023/02/16 08:03:58;;;;;;;7.93;6.88;;;;;;;5.50;100.00;97455.09;5095129;27;20083;-50
2023/02/16 08:06:27;;;;;;;9.88;7.13;;;;;;;5.08;100.00;97454.84;5116718;27;20083;-48
2023/02/16 08:08:55;;;;;;;8.32;7.10;;;;;;;5.65;100.00;97452.44;5099726;27;20083;-49
2023/02/16 08:11:25;;;;;;;8.50;6.70;;;;;;;5.92;100.00;97457.00;5118596;27;20078;-52
2023/02/16 08:13:54;;;;;;;7.90;6.30;;;;;;;6.65;100.00;97451.69;5102743;27;20086;-50
2023/02/16 08:16:24;;;;;;;8.45;6.30;;;;;;;6.03;100.00;97466.88;5116252;27;20086;-46
2023/02/16 08:18:55;;;;;;;7.65;6.15;;;;;;;6.75;100.00;97454.59;5115316;27;20469;-49
2023/02/16 08:21:25;;;;;;;7.85;6.38;;;;;;;6.38;100.00;97460.31;5109631;27;20071;-48
2023/02/16 08:23:54;;;;;;;7.93;6.60;;;;;;;6.66;100.00;97448.13;5105790;27;20075;-45
2023/02/16 08:26:24;;;;;;;8.88;6.35;;;;;;;6.96;100.00;97447.97;5118217;27;20040;-49
2023/02/16 08:28:55;;;;;;;7.40;5.70;;;;;;;6.63;100.00;97453.56;5113911;27;20131;-44
2023/02/16 08:31:27;;;;;;;8.13;6.63;;;;;;;7.33;100.00;97463.97;5121951;27;20087;-50
2023/02/16 08:33:59;;;;;;;7.38;6.30;;;;;;;7.55;100.00;97458.16;5112319;27;20083;-46
2023/02/16 08:36:31;;;;;;;7.15;6.10;;;;;;;6.96;100.00;97455.00;5111470;27;20078;-49
2023/02/16 08:39:00;;;;;;;7.75;6.32;;;;;;;7.81;100.00;97457.28;5111881;27;20094;-49
2023/02/16 08:41:31;;;;;;;8.95;7.05;;;;;;;8.13;100.00;97449.00;5106745;27;20082;-47
2023/02/16 08:44:02;;;;;;;11.13;9.32;;;;;;;8.05;100.00;97453.91;5112000;27;20075;-49
2023/02/16 08:46:31;;;;;;;9.57;7.15;;;;;;;7.70;100.00;97454.50;5106419;27;20074;-50
2023/02/16 08:49:01;;;;;;;8.93;6.63;;;;;;;8.46;100.00;97456.34;5113767;27;20531;-52
2023/02/16 08:51:31;;;;;;;9.40;7.63;;;;;;;7.87;100.00;97463.03;5104101;28;20075;-51
2023/02/16 08:53:59;;;;;;;9.48;7.00;;;;;;;8.53;100.00;97451.50;5107782;27;20166;-52
2023/02/16 08:56:28;;;;;;;9.18;6.65;;;;;;;7.06;100.00;97459.56;5105006;27;20079;-50
2023/02/16 08:58:58;;;;;;;9.30;6.72;;;;;;;7.18;100.00;97454.47;5109401;27;20079;-49
2023/02/16 09:01:27;;;;;;;9.13;7.17;;;;;;;8.37;100.00;97446.47;5109122;27;20067;-51
2023/02/16 09:03:55;;;;;;;8.73;6.78;;;;;;;9.03;100.00;97434.75;5106683;27;20086;-50
2023/02/16 09:06:25;;;;;;;8.73;7.10;;;;;;;8.50;100.00;97443.84;5104617;28;20554;-52
2023/02/16 09:08:55;;;;;;;9.60;7.10;;;;;;;8.90;100.00;97443.66;5100146;27;20107;-54
2023/02/16 09:11:24;;;;;;;9.18;7.13;;;;;;;9.27;100.00;97447.94;5111622;27;20086;-52
2023/02/16 09:13:53;;;;;;;10.38;7.50;;;;;;;8.66;100.00;97443.59;5111310;27;20527;-47
2023/02/16 09:16:23;;;;;;;10.25;8.07;;;;;;;8.94;100.00;97430.16;5109252;27;20115;-46
2023/02/16 09:18:52;;;;;;;10.18;8.10;;;;;;;9.45;100.00;97427.28;5111602;27;20086;-50
2023/02/16 09:21:21;;;;;;;9.30;7.40;;;;;;;9.88;100.00;97423.25;5120088;27;20113;-53
2023/02/16 09:23:53;;;;;;;10.88;8.48;;;;;;;9.73;100.00;97433.97;5111305;27;20098;-51
2023/02/16 09:26:23;;;;;;;11.13;7.93;;;;;;;9.88;100.00;97431.16;5107010;27;20075;-50
2023/02/16 09:28:52;;;;;;;10.88;8.57;;;;;;;9.87;100.00;97437.38;5107593;27;20083;-45
2023/02/16 09:31:25;;;;;;;10.60;8.48;;;;;;;10.29;100.00;97432.44;5108613;27;20798;-52
2023/02/16 09:33:54;;;;;;;13.90;7.90;;;;;;;9.47;100.00;97446.47;5102580;27;20060;-51
2023/02/16 09:36:23;;;;;;;11.73;8.82;;;;;;;9.97;100.00;97443.63;5102657;27;20087;-46
2023/02/16 09:38:53;;;;;;;10.80;7.97;;;;;;;10.55;100.00;97435.69;5115529;27;20078;-45
2023/02/16 09:41:28;;;;;;;10.60;8.80;;;;;;;9.60;100.00;97448.16;5105503;27;20078;-47
2023/02/16 09:43:59;;;;;;;11.07;7.88;;;;;;;10.69;100.00;97438.06;5106938;28;20079;-49
2023/02/16 09:46:29;;;;;;;12.73;9.10;;;;;;;10.96;100.00;97440.31;5111615;27;20087;-52
2023/02/16 09:48:58;;;;;;;11.75;8.90;;;;;;;11.19;100.00;97429.72;5100733;27;20079;-52
2023/02/16 09:51:29;;;;;;;14.18;9.30;;;;;;;11.39;100.00;97437.69;5118376;27;20106;-50
2023/02/16 09:54:23;;;;;;;12.73;8.85;;;;;;;11.30;100.00;97435.78;5103004;27;20641;-51
2023/02/16 09:56:54;;;;;;;11.55;8.88;;;;;;;11.88;100.00;97430.16;5115310;27;23438;-50
2023/02/16 09:59:26;;;;;;;;;;;;;;;11.98;100.00;97431.06;5107569;27;20470;-50
2023/02/16 10:02:00;;;;;;;11.80;8.60;;;;;;;11.58;100.00;97426.44;5118250;27;19954;-46
2023/02/16 10:04:37;;;;;;;12.30;9.10;;;;;;;12.10;100.00;97423.91;5109463;27;20074;-51
2023/02/16 10:07:20;;;;;;;12.25;9.23;;;;;;;11.72;100.00;97433.22;5099008;27;20082;-50
2023/02/16 10:09:52;;;;;;;13.25;8.77;;;;;;;12.02;100.00;97434.28;5106071;28;20083;-45
2023/02/16 10:12:23;;;;;;;12.73;9.05;;;;;;;12.43;100.00;97422.00;5102612;27;20091;-54
2023/02/16 10:14:54;;;;;;;11.93;9.07;;;;;;;12.63;100.00;97420.25;5111262;27;20086;-44
2023/02/16 10:17:28;;;;;;;12.85;8.93;;;;;;;12.89;100.00;97413.50;5098294;28;20582;-46
2023/02/16 10:19:59;;;;;;;13.27;9.48;;;;;;;13.03;100.00;97418.41;5104140;27;20531;-51
2023/02/16 10:22:31;;;;;;;13.60;9.30;;;;;;;12.71;100.00;97421.25;5105604;27;20464;-53
2023/02/16 10:25:02;;;;;;;13.85;10.05;;;;;;;12.15;100.00;97423.50;5107995;27;20072;-49
2023/02/16 10:27:36;;;;;;;14.00;10.10;;;;;;;12.76;100.00;97419.03;5112271;27;20114;-51
2023/02/16 10:30:13;;;;;;;15.65;10.13;;;;;;;12.20;100.00;97418.66;5093634;27;20083;-52
2023/02/16 10:32:54;;;;;;;18.38;10.43;;;;;;;11.67;100.00;97424.00;5113060;27;20066;-50
2023/02/16 10:35:28;;;;;;;13.95;9.00;;;;;;;11.62;100.00;97417.28;5108740;27;20185;-52
2023/02/16 10:38:01;;;;;;;14.45;7.78;;;;;;;11.63;100.00;97416.34;5115763;27;20071;-45
2023/02/16 10:40:36;;;;;;;15.77;9.93;;;;;;;11.79;100.00;97417.69;5104646;27;20083;-50
2023/02/16 10:43:10;;;;;;;17.88;10.25;;;;;;;11.21;100.00;97410.13;5118110;27;20519;-49
2023/02/16 10:45:44;;;;;;;17.48;10.25;;;;;;;11.80;100.00;97404.34;5110142;27;20074;-45
2023/02/16 10:48:20;;;;;;;16.67;10.20;;;;;;;12.12;100.00;97411.41;5105708;27;20075;-48
2023/02/16 10:50:57;;;;;;;17.55;9.82;;;;;;;12.34;100.00;97402.44;5106137;27;20094;-48
2023/02/16 10:53:35;;;;;;;21.20;10.32;;;;;;;12.19;100.00;97403.78;5115781;27;20086;-50
2023/02/16 10:56:23;;;;;;;14.50;8.48;;;;;;;12.03;100.00;97402.44;5102382;27;20443;-50
2023/02/16 10:58:51;;;;;;;15.93;9.48;;;;;;;12.79;100.00;97389.66;5105536;27;20721;-44
2023/02/16 11:01:22;;;;;;;17.00;8.80;;;;;;;12.88;100.00;97395.94;5110497;27;20108;-46
2023/02/16 11:03:51;;;;;;;17.00;10.38;;;;;;;12.75;100.00;97390.06;5107088;27;20690;-50
2023/02/16 11:06:21;;;;;;;15.63;10.32;;;;;;;12.98;100.00;97380.94;5108822;27;20569;-47
2023/02/16 11:08:53;;;;;;;18.70;9.98;;;;;;;12.95;93.56;97386.50;5113846;27;20548;-51
2023/02/16 11:11:24;;;;;;;14.35;6.82;;;;;;;13.61;96.82;97377.06;5106519;27;20535;-53
2023/02/16 11:13:58;;;;;;;15.57;7.53;;;;;;;13.47;85.38;97375.69;5121499;27;20083;-47
2023/02/16 11:16:27;;;;;;;18.33;8.10;;;;;;;13.70;100.00;97368.28;5109820;27;20078;-50
2023/02/16 11:18:57;;;;;;;15.35;9.02;;;;;;;13.87;91.79;97362.25;5113162;27;20089;-51
2023/02/16 11:21:44;;;;;;;17.70;9.57;;;;;;;13.82;96.12;97368.94;5102187;28;20079;-51
2023/02/16 11:24:24;;;;;;;16.58;9.80;;;;;;;13.50;81.07;97362.16;5104881;28;20083;-52
2023/02/16 11:27:05;;;;;;;15.18;9.65;;;;;;;14.12;100.00;97363.44;5113560;28;20582;-47
2023/02/16 11:29:34;;;;;;;17.98;8.80;;;;;;;14.18;99.48;97351.41;5102491;28;20067;-49
2023/02/16 11:32:06;;;;;;;18.15;10.27;;;;;;;13.98;91.47;97356.78;5109481;28;20067;-48
2023/02/16 11:34:37;;;;;;;15.02;8.80;;;;;;;13.80;91.72;97349.69;5098787;28;20079;-51
2023/02/16 11:37:07;;;;;;;17.10;9.13;;;;;;;13.73;86.60;97341.50;5116244;28;20084;-50
2023/02/16 11:39:38;;;;;;;16.85;9.20;;;;;;;14.07;80.83;97338.31;5104169;28;20075;-51
2023/02/16 11:42:10;;;;;;;17.08;9.23;;;;;;;13.99;80.29;97328.44;5113923;28;20075;-52
2023/02/16 11:44:43;;;;;;;15.70;8.10;;;;;;;14.29;75.11;97330.00;5104272;28;20075;-46
2023/02/16 11:47:23;;;;;;;15.63;8.90;;;;;;;14.55;92.23;97330.16;5100948;28;20095;-51
2023/02/16 11:50:09;;;;;;;17.23;9.38;;;;;;;14.50;97.55;97332.44;5108337;28;20091;-49
2023/02/16 11:52:37;;;;;;;14.90;8.82;;;;;;;14.94;78.54;97322.81;5105494;27;20079;-51
2023/02/16 11:55:20;;;;;;;14.55;8.57;;;;;;;14.38;70.23;97326.47;5109965;28;20447;-49
2023/02/16 11:57:50;;;;;;;18.08;8.55;;;;;;;14.57;66.80;97314.13;5099958;28;20086;-46
2023/02/16 12:00:20;;;;;;;23.48;8.68;;;;;;;15.08;70.98;97310.00;5115186;27;20074;-45
2023/02/16 12:03:02;;;;;;;11.32;5.97;;;;;;;14.89;73.33;97316.28;5107016;27;20083;-49
2023/02/16 12:05:38;;;;;;;14.30;8.02;;;;;;;15.16;65.10;97296.78;5101456;28;20110;-51
2023/02/16 12:08:18;;;;;;;12.70;6.03;;;;;;;14.90;62.87;97302.88;5108934;28;20091;-51
2023/02/16 12:11:00;;;;;;;15.27;7.13;;;;;;;15.23;61.21;97299.66;5101754;28;20102;-49
2023/02/16 12:13:36;;;;;;;15.45;7.70;;;;;;;16.02;55.00;97291.59;5108694;28;20090;-51
2023/02/16 12:16:13;;;;;;;13.90;7.53;;;;;;;15.53;55.86;97290.44;5097347;28;20084;-52
2023/02/16 12:18:56;;;;;;;13.77;7.00;;;;;;;15.80;51.37;97292.16;5097460;27;20483;-52